Announcements:Want to see something added? Can you write a mobile app? Email Mr. Reynolds

Nearby METAR Reports

 

KMIC - Crystal, Minnesota, USA
Distance from station: N 7mi, 16km
Updated: Mon, 03/01/2021 3:53am CST
Light snow, Overcast
Light snow, Overcast
 Wind from N
Wind: N 9 mph , 15 km/h
Temperature: 18°F , -8°C
Wind Chill: 7°F , -14°C
Dew Point: 12°F , -11°C
Humidity: 79%
Barometer: 30.16 inHg , 1021.3 hPa
Summary: Light Snow
Clouds: Overcast
Visibility: 3 miles , 5 km
Cloud details: Overcast 2900 ft
2021/03/01 09:53 KMIC 010953Z AUTO 36008KT 3SM -SN OVC029 M08/M11 A3016 RMK AO2 SLP228 P0000 T10831111
KANE - Anoka-Blaine, Minnesota, USA
Distance from station: N 16mi, 27km
Updated: Mon, 03/01/2021 3:55am CST
Light snow, Overcast
Light snow, Overcast
 Wind from N
Wind: N 10 mph , 17 km/h
Temperature: 18°F , -8°C
Wind Chill: 6°F , -14°C
Dew Point: 14°F , -10°C
Humidity: 86%
Barometer: 30.16 inHg , 1021.3 hPa
Summary: Light Snow
Clouds: Overcast
Visibility: 5 miles , 8 km
Cloud details: Partly cloudy 1200 ft
Mostly cloudy 4500 ft
Overcast 5000 ft
2021/03/01 09:55 KANE 010955Z AUTO 35009KT 5SM -SN SCT012 BKN045 OVC050 M08/M10 A3016 RMK AO2
KFCM - Flying Cloud-Eden Prairie, Minnesota, USA
Distance from station: SW 17mi, 28km
Updated: Mon, 03/01/2021 3:53am CST
Light snow, Mist, Overcast
Light snow, Mist, Overcast
 Wind from NNW
Wind: NNW 9 mph , 15 km/h
Temperature: 19°F , -7°C
Wind Chill: 8°F , -13°C
Dew Point: 16°F , -9°C
Humidity: 86%
Barometer: 30.15 inHg , 1021 hPa
Summary: Light snow, Mist
Clouds: Overcast
Visibility: 1 1/2 miles , 2.4 km
Cloud details: Overcast 1300 ft
2021/03/01 09:53 KFCM 010953Z AUTO 34008KT 1 1/2SM -SN BR OVC013 M07/M09 A3015 RMK AO2 SLP224 P0001 T10721094
 
KMSP - Minneapolis-St. Paul, Minnesota, USA
Distance from station: SE 16mi, 27km
Updated: Mon, 03/01/2021 3:53am CST
Light snow, Mist, Overcast
Light snow, Mist, Overcast
 Wind from N
Wind: N 9 mph , 15 km/h
Temperature: 19°F , -7°C
Wind Chill: 8°F , -13°C
Dew Point: 16°F , -9°C
Humidity: 86%
Barometer: 30.16 inHg , 1021.3 hPa
Summary: Light snow, Mist
Clouds: Overcast
Visibility: 1 mile , 2 km
Cloud details: Overcast 1400 ft
2021/03/01 09:53 KMSP 010953Z 35008KT 1SM R30L/P6000FT -SN BR VV014 M07/M09 A3016 RMK AO2 SLP227 P0002 T10721094
KRST - Rochester, Minnesota, USA
Distance from station: SE 99mi, 159km
Updated: Mon, 03/01/2021 3:54am CST
Overcast
Overcast
 Wind from NW
Wind: NW 6 mph , 9 km/h
Temperature: 19°F , -7°C
Wind Chill: 11°F , -12°C
Dew Point: 14°F , -10°C
Humidity: 79%
Barometer: 30.09 inHg , 1019 hPa
Clouds: Overcast
Visibility: 10 miles , 16 km
Cloud details: Overcast 6000 ft
2021/03/01 09:54 KRST 010954Z 32005KT 10SM OVC060 M07/M10 A3009 RMK AO2 SLP211 T10721100
KSGS - Fleming/St Paul, Minnesota, USA
Distance from station: ESE 23mi, 37km
Updated: Mon, 03/01/2021 3:55am CST
Light snow, Overcast
Light snow, Overcast
 Wind from N
Wind: N 7 mph , 11 km/h
Temperature: 19°F , -7°C
Wind Chill: 10°F , -12°C
Dew Point: 18°F , -8°C
Humidity: 93%
Barometer: 30.16 inHg , 1021.3 hPa
Summary: Light Snow
Clouds: Overcast
Visibility: 2 miles , 3 km
Cloud details: Partly cloudy 100 ft
Mostly cloudy 600 ft
Overcast 1300 ft
2021/03/01 09:55 KSGS 010955Z AUTO 35006KT 2SM -SN SCT001 BKN006 OVC013 M07/M08 A3016 RMK AO2 T10671085
 
KDLH - Duluth, Minnesota, USA
Distance from station: NNE 164mi, 265km
Updated: Mon, 03/01/2021 3:55am CST
Clear
Clear
 Wind from NW
Wind: NW 15 mph , 24 km/h, Gust: 22 mph , 35 km/h
Temperature: 5°F , -15°C
Wind Chill: -13°F , -25°C
Dew Point: -6°F , -21°C
Humidity: 60%
Barometer: 30.10 inHg , 1019.3 hPa
Clouds: Clear
Visibility: 10 miles , 16 km
2021/03/01 09:55 KDLH 010955Z 31013G19KT 10SM CLR M15/M21 A3010 RMK AO2 SLP224 T11501206 $
KBRD - Brainard, Minnesota, USA
Distance from station: NNW 127mi, 25km
Updated: Mon, 03/01/2021 3:53am CST
Clear
Clear
 Wind from N
Wind: N 13 mph , 20 km/h
Temperature: 9°F , -13°C
Wind Chill: -7°F , -22°C
Dew Point: -0°F , -18°C
Humidity: 66%
Barometer: 30.19 inHg , 1022.4 hPa
Clouds: Clear
Visibility: 10 miles , 16 km
2021/03/01 09:53 KBRD 010953Z AUTO 35011KT 10SM CLR M13/M18 A3019 RMK AO2 SLP247 T11281178